sensor_id;sensor_type;location;lat;lon;timestamp;pressure;altitude;pressure_sealevel;temperature;humidity
66479;BME280;53294;47.912;13.526;2024-02-26T00:00:40;94689.97;;;0.13;82.07
66479;BME280;53294;47.912;13.526;2024-02-26T00:03:07;94684.69;;;0.03;82.09
66479;BME280;53294;47.912;13.526;2024-02-26T00:05:34;94689.19;;;-0.08;82.76
66479;BME280;53294;47.912;13.526;2024-02-26T00:08:01;94686.00;;;-0.21;83.32
66479;BME280;53294;47.912;13.526;2024-02-26T00:10:31;94684.44;;;-0.22;84.28
66479;BME280;53294;47.912;13.526;2024-02-26T00:12:58;94677.84;;;-0.24;84.65
66479;BME280;53294;47.912;13.526;2024-02-26T00:15:24;94679.16;;;-0.22;85.48
66479;BME280;53294;47.912;13.526;2024-02-26T00:17:51;94680.75;;;-0.10;85.35
66479;BME280;53294;47.912;13.526;2024-02-26T00:20:18;94671.75;;;-0.20;85.29
66479;BME280;53294;47.912;13.526;2024-02-26T00:22:45;94673.63;;;-0.35;86.31
66479;BME280;53294;47.912;13.526;2024-02-26T00:25:12;94674.91;;;-0.38;87.28
66479;BME280;53294;47.912;13.526;2024-02-26T00:27:39;94670.44;;;-0.27;86.93
66479;BME280;53294;47.912;13.526;2024-02-26T00:30:08;94663.84;;;-0.25;86.51
66479;BME280;53294;47.912;13.526;2024-02-26T00:32:35;94662.25;;;-0.26;86.60
66479;BME280;53294;47.912;13.526;2024-02-26T00:35:02;94668.84;;;-0.28;86.77
66479;BME280;53294;47.912;13.526;2024-02-26T00:37:29;94668.06;;;-0.24;86.66
66479;BME280;53294;47.912;13.526;2024-02-26T00:39:56;94658.56;;;-0.25;85.85
66479;BME280;53294;47.912;13.526;2024-02-26T00:42:23;94657.50;;;-0.29;86.50
66479;BME280;53294;47.912;13.526;2024-02-26T00:44:50;94650.91;;;-0.31;87.27
66479;BME280;53294;47.912;13.526;2024-02-26T00:47:16;94647.75;;;-0.18;87.23
66479;BME280;53294;47.912;13.526;2024-02-26T00:49:43;94646.94;;;-0.08;86.21
66479;BME280;53294;47.912;13.526;2024-02-26T00:52:10;94645.38;;;-0.20;86.98
66479;BME280;53294;47.912;13.526;2024-02-26T00:54:37;94646.97;;;-0.19;87.29
66479;BME280;53294;47.912;13.526;2024-02-26T00:57:03;94644.31;;;-0.13;87.98
66479;BME280;53294;47.912;13.526;2024-02-26T00:59:30;94638.00;;;-0.12;88.11
66479;BME280;53294;47.912;13.526;2024-02-26T01:01:57;94639.28;;;0.01;88.09
66479;BME280;53294;47.912;13.526;2024-02-26T01:04:25;94635.84;;;0.05;87.47
66479;BME280;53294;47.912;13.526;2024-02-26T01:06:51;94631.06;;;0.12;87.19
66479;BME280;53294;47.912;13.526;2024-02-26T01:09:18;94633.44;;;0.14;87.35
66479;BME280;53294;47.912;13.526;2024-02-26T01:11:45;94633.19;;;0.21;87.41
66479;BME280;53294;47.912;13.526;2024-02-26T01:14:13;94626.31;;;0.30;86.85
66479;BME280;53294;47.912;13.526;2024-02-26T01:16:41;94622.63;;;0.21;86.40
66479;BME280;53294;47.912;13.526;2024-02-26T01:19:07;94622.34;;;0.17;86.98
66479;BME280;53294;47.912;13.526;2024-02-26T01:21:35;94615.22;;;0.23;86.80
66479;BME280;53294;47.912;13.526;2024-02-26T01:24:01;94612.59;;;0.17;86.55
66479;BME280;53294;47.912;13.526;2024-02-26T01:26:28;94628.44;;;0.17;86.48
66479;BME280;53294;47.912;13.526;2024-02-26T01:28:55;94611.00;;;0.16;86.35
66479;BME280;53294;47.912;13.526;2024-02-26T01:31:22;94608.91;;;0.08;86.33
66479;BME280;53294;47.912;13.526;2024-02-26T01:33:49;94604.66;;;0.12;86.32
66479;BME280;53294;47.912;13.526;2024-02-26T01:36:16;94605.78;;;-0.04;86.64
66479;BME280;53294;47.912;13.526;2024-02-26T01:38:43;94599.97;;;-0.01;86.62
66479;BME280;53294;47.912;13.526;2024-02-26T01:41:10;94602.09;;;-0.03;86.46
66479;BME280;53294;47.912;13.526;2024-02-26T01:43:36;94603.13;;;-0.04;86.37
66479;BME280;53294;47.912;13.526;2024-02-26T01:46:03;94596.00;;;-0.04;86.02
66479;BME280;53294;47.912;13.526;2024-02-26T01:48:30;94603.13;;;-0.04;85.84
66479;BME280;53294;47.912;13.526;2024-02-26T01:50:58;94599.44;;;-0.08;85.92
66479;BME280;53294;47.912;13.526;2024-02-26T01:53:25;94601.56;;;0.00;85.74
66479;BME280;53294;47.912;13.526;2024-02-26T01:55:51;94594.69;;;-0.01;85.49
66479;BME280;53294;47.912;13.526;2024-02-26T01:58:18;94601.56;;;0.00;85.21
66479;BME280;53294;47.912;13.526;2024-02-26T02:00:45;94600.50;;;-0.14;85.38
66479;BME280;53294;47.912;13.526;2024-02-26T02:03:12;94601.81;;;-0.07;85.13
66479;BME280;53294;47.912;13.526;2024-02-26T02:05:39;94598.66;;;-0.09;85.05
66479;BME280;53294;47.912;13.526;2024-02-26T02:08:13;94599.44;;;-0.08;85.06
66479;BME280;53294;47.912;13.526;2024-02-26T02:10:43;94593.13;;;-0.12;84.81
66479;BME280;53294;47.912;13.526;2024-02-26T02:13:10;94598.16;;;-0.26;85.52
66479;BME280;53294;47.912;13.526;2024-02-26T02:15:37;94597.88;;;-0.40;85.92
66479;BME280;53294;47.912;13.526;2024-02-26T02:18:04;94598.41;;;-0.43;86.15
66479;BME280;53294;47.912;13.526;2024-02-26T02:20:34;94598.66;;;-0.55;87.00
66479;BME280;53294;47.912;13.526;2024-02-26T02:23:02;94604.44;;;-0.84;88.78
66479;BME280;53294;47.912;13.526;2024-02-26T02:25:29;94604.16;;;-0.93;89.71
66479;BME280;53294;47.912;13.526;2024-02-26T02:27:56;94610.25;;;-0.82;89.86
66479;BME280;53294;47.912;13.526;2024-02-26T02:30:25;94606.00;;;-0.93;89.65
66479;BME280;53294;47.912;13.526;2024-02-26T02:32:53;94607.88;;;-0.88;89.87
66479;BME280;53294;47.912;13.526;2024-02-26T02:35:20;94602.06;;;-0.85;89.48
66479;BME280;53294;47.912;13.526;2024-02-26T02:37:46;94605.22;;;-0.73;89.20
66479;BME280;53294;47.912;13.526;2024-02-26T02:40:14;94605.78;;;-0.76;89.14
66479;BME280;53294;47.912;13.526;2024-02-26T02:42:40;94604.19;;;-0.67;88.75
66479;BME280;53294;47.912;13.526;2024-02-26T02:45:07;94594.69;;;-0.63;87.95
66479;BME280;53294;47.912;13.526;2024-02-26T02:47:37;94598.41;;;-0.59;87.49
66479;BME280;53294;47.912;13.526;2024-02-26T02:50:04;94603.16;;;-0.50;87.75
66479;BME280;53294;47.912;13.526;2024-02-26T02:52:31;94591.00;;;-0.41;87.51
66479;BME280;53294;47.912;13.526;2024-02-26T02:54:58;94587.84;;;-0.33;87.24
66479;BME280;53294;47.912;13.526;2024-02-26T02:57:25;94589.16;;;-0.46;86.81
66479;BME280;53294;47.912;13.526;2024-02-26T02:59:52;94591.00;;;-0.41;86.61
66479;BME280;53294;47.912;13.526;2024-02-26T03:02:19;94601.31;;;-0.40;86.57
66479;BME280;53294;47.912;13.526;2024-02-26T03:04:45;94594.97;;;-0.39;86.50
66479;BME280;53294;47.912;13.526;2024-02-26T03:07:13;94597.88;;;-0.35;86.08
66479;BME280;53294;47.912;13.526;2024-02-26T03:09:39;94586.53;;;-0.35;85.75
66479;BME280;53294;47.912;13.526;2024-02-26T03:12:07;94591.28;;;-0.27;85.05
66479;BME280;53294;47.912;13.526;2024-02-26T03:14:34;94590.50;;;-0.28;85.07
66479;BME280;53294;47.912;13.526;2024-02-26T03:17:01;94592.88;;;-0.26;85.00
66479;BME280;53294;47.912;13.526;2024-02-26T03:19:28;94585.19;;;-0.17;84.30
66479;BME280;53294;47.912;13.526;2024-02-26T03:21:54;94583.59;;;-0.13;83.54
66479;BME280;53294;47.912;13.526;2024-02-26T03:24:21;94587.31;;;-0.09;83.30
66479;BME280;53294;47.912;13.526;2024-02-26T03:26:48;94595.22;;;-0.14;83.50
66479;BME280;53294;47.912;13.526;2024-02-26T03:29:15;94596.81;;;-0.24;83.43
66479;BME280;53294;47.912;13.526;2024-02-26T03:31:41;94594.72;;;-0.22;83.41
66479;BME280;53294;47.912;13.526;2024-02-26T03:34:08;94601.31;;;-0.24;83.56
66479;BME280;53294;47.912;13.526;2024-02-26T03:36:35;94588.91;;;-0.29;83.78
66479;BME280;53294;47.912;13.526;2024-02-26T03:39:02;94584.41;;;-0.23;83.44
66479;BME280;53294;47.912;13.526;2024-02-26T03:41:34;94593.13;;;-0.23;83.18
66479;BME280;53294;47.912;13.526;2024-02-26T03:44:01;94582.81;;;-0.19;83.02
66479;BME280;53294;47.912;13.526;2024-02-26T03:46:28;94579.91;;;-0.17;82.53
66479;BME280;53294;47.912;13.526;2024-02-26T03:48:55;94573.06;;;-0.19;82.33
66479;BME280;53294;47.912;13.526;2024-02-26T03:51:22;94573.31;;;-0.15;82.10
66479;BME280;53294;47.912;13.526;2024-02-26T03:53:49;94575.41;;;-0.12;81.71
66479;BME280;53294;47.912;13.526;2024-02-26T03:56:16;94571.47;;;-0.09;80.71
66479;BME280;53294;47.912;13.526;2024-02-26T03:58:43;94573.56;;;-0.06;80.46
66479;BME280;53294;47.912;13.526;2024-02-26T04:01:10;94576.22;;;-0.06;79.73
66479;BME280;53294;47.912;13.526;2024-02-26T04:03:36;94582.28;;;-0.06;79.55
66479;BME280;53294;47.912;13.526;2024-02-26T04:06:03;94583.84;;;-0.10;78.88
66479;BME280;53294;47.912;13.526;2024-02-26T04:08:30;94590.47;;;-0.17;79.00
66479;BME280;53294;47.912;13.526;2024-02-26T04:10:57;94583.06;;;-0.21;78.42
66479;BME280;53294;47.912;13.526;2024-02-26T04:13:25;94593.66;;;-0.26;78.76
66479;BME280;53294;47.912;13.526;2024-02-26T04:15:52;94589.44;;;-0.32;78.34
66479;BME280;53294;47.912;13.526;2024-02-26T04:18:19;94589.97;;;-0.35;78.62
66479;BME280;53294;47.912;13.526;2024-02-26T04:20:46;94586.25;;;-0.39;78.23
66479;BME280;53294;47.912;13.526;2024-02-26T04:23:12;94597.84;;;-0.45;78.50
66479;BME280;53294;47.912;13.526;2024-02-26T04:25:39;94603.16;;;-0.50;78.48
66479;BME280;53294;47.912;13.526;2024-02-26T04:28:06;94603.66;;;-0.53;78.15
66479;BME280;53294;47.912;13.526;2024-02-26T04:30:33;94601.03;;;-0.59;77.97
66479;BME280;53294;47.912;13.526;2024-02-26T04:32:59;94610.78;;;-0.59;78.09
66479;BME280;53294;47.912;13.526;2024-02-26T04:35:26;94613.16;;;-0.63;77.10
66479;BME280;53294;47.912;13.526;2024-02-26T04:37:53;94613.94;;;-0.78;77.15
66479;BME280;53294;47.912;13.526;2024-02-26T04:40:20;94619.97;;;-0.87;77.50
66479;BME280;53294;47.912;13.526;2024-02-26T04:42:49;94612.59;;;-1.01;78.06
66479;BME280;53294;47.912;13.526;2024-02-26T04:45:16;94612.75;;;-1.23;78.65
66479;BME280;53294;47.912;13.526;2024-02-26T04:47:43;94615.91;;;-1.26;78.83
66479;BME280;53294;47.912;13.526;2024-02-26T04:50:10;94613.56;;;-1.22;78.19
66479;BME280;53294;47.912;13.526;2024-02-26T04:52:37;94615.69;;;-1.19;77.56
66479;BME280;53294;47.912;13.526;2024-02-26T04:55:04;94613.31;;;-1.21;78.17
66479;BME280;53294;47.912;13.526;2024-02-26T04:57:30;94614.63;;;-1.18;78.35
66479;BME280;53294;47.912;13.526;2024-02-26T04:59:57;94612.25;;;-1.20;77.80
66479;BME280;53294;47.912;13.526;2024-02-26T05:02:24;94618.84;;;-1.17;78.40
66479;BME280;53294;47.912;13.526;2024-02-26T05:04:51;94610.16;;;-1.18;78.47
66479;BME280;53294;47.912;13.526;2024-02-26T05:07:17;94614.09;;;-1.20;79.40
66479;BME280;53294;47.912;13.526;2024-02-26T05:09:44;94612.00;;;-1.18;79.63
66479;BME280;53294;47.912;13.526;2024-02-26T05:12:11;94613.59;;;-1.17;79.67
66479;BME280;53294;47.912;13.526;2024-02-26T05:14:39;94614.34;;;-1.22;79.12
66479;BME280;53294;47.912;13.526;2024-02-26T05:17:05;94611.41;;;-1.31;79.79
66479;BME280;53294;47.912;13.526;2024-02-26T05:19:32;94611.66;;;-1.37;81.02
66479;BME280;53294;47.912;13.526;2024-02-26T05:21:59;94606.97;;;-1.30;81.10
66479;BME280;53294;47.912;13.526;2024-02-26T05:24:26;94612.75;;;-1.23;80.47
66479;BME280;53294;47.912;13.526;2024-02-26T05:26:53;94616.72;;;-1.20;80.82
66479;BME280;53294;47.912;13.526;2024-02-26T05:29:21;94614.03;;;-1.36;82.06
66479;BME280;53294;47.912;13.526;2024-02-26T05:31:48;94615.13;;;-1.32;82.87
66479;BME280;53294;47.912;13.526;2024-02-26T05:34:14;94609.34;;;-1.29;82.74
66479;BME280;53294;47.912;13.526;2024-02-26T05:36:41;94608.81;;;-1.25;82.12
66479;BME280;53294;47.912;13.526;2024-02-26T05:39:08;94615.66;;;-1.24;81.39
66479;BME280;53294;47.912;13.526;2024-02-26T05:41:43;94612.75;;;-1.23;81.42
66479;BME280;53294;47.912;13.526;2024-02-26T05:44:11;94618.53;;;-1.26;81.25
66479;BME280;53294;47.912;13.526;2024-02-26T05:46:38;94617.75;;;-1.27;80.64
66479;BME280;53294;47.912;13.526;2024-02-26T05:49:04;94614.59;;;-1.29;80.47
66479;BME280;53294;47.912;13.526;2024-02-26T05:51:31;94620.38;;;-1.32;80.40
66479;BME280;53294;47.912;13.526;2024-02-26T05:53:58;94623.00;;;-1.37;80.33
66479;BME280;53294;47.912;13.526;2024-02-26T05:56:25;94614.25;;;-1.48;80.40
66479;BME280;53294;47.912;13.526;2024-02-26T05:58:52;94625.00;;;-1.59;80.50
66479;BME280;53294;47.912;13.526;2024-02-26T06:01:20;94625.78;;;-1.59;80.32
66479;BME280;53294;47.912;13.526;2024-02-26T06:03:47;94623.97;;;-1.58;80.50
66479;BME280;53294;47.912;13.526;2024-02-26T06:06:14;94626.09;;;-1.55;80.67
66479;BME280;53294;47.912;13.526;2024-02-26T06:08:42;94629.78;;;-1.56;79.91
66479;BME280;53294;47.912;13.526;2024-02-26T06:11:09;94636.63;;;-1.55;80.23
66479;BME280;53294;47.912;13.526;2024-02-26T06:13:36;94641.91;;;-1.55;80.16
66479;BME280;53294;47.912;13.526;2024-02-26T06:16:03;94639.22;;;-1.60;80.22
66479;BME280;53294;47.912;13.526;2024-02-26T06:18:30;94631.88;;;-1.53;80.79
66479;BME280;53294;47.912;13.526;2024-02-26T06:20:57;94633.25;;;-1.46;79.99
66479;BME280;53294;47.912;13.526;2024-02-26T06:23:24;94638.00;;;-1.42;80.54
66479;BME280;53294;47.912;13.526;2024-02-26T06:25:51;94635.91;;;-1.35;81.95
66479;BME280;53294;47.912;13.526;2024-02-26T06:28:18;94640.44;;;-1.25;82.47
66479;BME280;53294;47.912;13.526;2024-02-26T06:30:44;94626.75;;;-1.17;82.28
66479;BME280;53294;47.912;13.526;2024-02-26T06:33:12;94637.84;;;-1.10;82.45
66479;BME280;53294;47.912;13.526;2024-02-26T06:35:41;94647.88;;;-1.02;82.37
66479;BME280;53294;47.912;13.526;2024-02-26T06:38:08;94633.16;;;-0.93;82.26
66479;BME280;53294;47.912;13.526;2024-02-26T06:40:36;94643.75;;;-0.82;81.85
66479;BME280;53294;47.912;13.526;2024-02-26T06:43:03;94645.84;;;-0.74;81.40
66479;BME280;53294;47.912;13.526;2024-02-26T06:45:30;94642.16;;;-0.63;80.49
66479;BME280;53294;47.912;13.526;2024-02-26T06:47:56;94646.66;;;-0.53;79.37
66479;BME280;53294;47.912;13.526;2024-02-26T06:50:23;94644.03;;;-0.43;79.15
66479;BME280;53294;47.912;13.526;2024-02-26T06:52:50;94640.59;;;-0.33;78.81
66479;BME280;53294;47.912;13.526;2024-02-26T06:55:17;94648.28;;;-0.26;79.01
66479;BME280;53294;47.912;13.526;2024-02-26T06:57:44;94648.28;;;-0.21;79.05
66479;BME280;53294;47.912;13.526;2024-02-26T07:00:11;94654.88;;;-0.13;78.78
66479;BME280;53294;47.912;13.526;2024-02-26T07:02:42;94658.59;;;-0.09;78.73
66479;BME280;53294;47.912;13.526;2024-02-26T07:05:09;94660.69;;;-0.06;79.04
66479;BME280;53294;47.912;13.526;2024-02-26T07:07:35;94663.31;;;-0.01;78.60
66479;BME280;53294;47.912;13.526;2024-02-26T07:10:02;94657.78;;;-0.05;78.69
66479;BME280;53294;47.912;13.526;2024-02-26T07:12:30;94661.47;;;-0.06;79.37
66479;BME280;53294;47.912;13.526;2024-02-26T07:14:57;94648.50;;;0.03;79.54
66479;BME280;53294;47.912;13.526;2024-02-26T07:17:24;94654.03;;;0.27;79.41
66479;BME280;53294;47.912;13.526;2024-02-26T07:19:51;94655.34;;;0.45;80.04
66479;BME280;53294;47.912;13.526;2024-02-26T07:22:18;94653.69;;;0.70;79.97
66479;BME280;53294;47.912;13.526;2024-02-26T07:24:45;94653.59;;;0.85;79.83
66479;BME280;53294;47.912;13.526;2024-02-26T07:27:12;94655.41;;;1.00;79.56
66479;BME280;53294;47.912;13.526;2024-02-26T07:29:38;94642.41;;;1.09;79.92
66479;BME280;53294;47.912;13.526;2024-02-26T07:32:06;94651.78;;;1.36;79.93
66479;BME280;53294;47.912;13.526;2024-02-26T07:34:32;94650.00;;;1.66;79.69
66479;BME280;53294;47.912;13.526;2024-02-26T07:36:59;94662.25;;;1.91;78.53
66479;BME280;53294;47.912;13.526;2024-02-26T07:39:26;94664.22;;;2.09;77.98
66479;BME280;53294;47.912;13.526;2024-02-26T07:41:53;94662.00;;;2.22;76.76
66479;BME280;53294;47.912;13.526;2024-02-26T07:44:20;94661.72;;;2.23;76.21
66479;BME280;53294;47.912;13.526;2024-02-26T07:46:47;94660.53;;;2.34;76.76
66479;BME280;53294;47.912;13.526;2024-02-26T07:49:14;94665.13;;;2.53;76.47
66479;BME280;53294;47.912;13.526;2024-02-26T07:51:41;94668.72;;;2.67;76.03
66479;BME280;53294;47.912;13.526;2024-02-26T07:54:08;94671.38;;;2.67;75.64
66479;BME280;53294;47.912;13.526;2024-02-26T07:56:35;94679.34;;;2.67;74.92
66479;BME280;53294;47.912;13.526;2024-02-26T07:59:01;94674.25;;;2.95;74.26
66479;BME280;53294;47.912;13.526;2024-02-26T08:01:28;94666.47;;;3.23;73.21
66479;BME280;53294;47.912;13.526;2024-02-26T08:03:55;94673.44;;;3.38;72.69
66479;BME280;53294;47.912;13.526;2024-02-26T08:06:23;94670.78;;;3.57;72.35
66479;BME280;53294;47.912;13.526;2024-02-26T08:08:51;94673.16;;;3.77;72.19
66479;BME280;53294;47.912;13.526;2024-02-26T08:11:18;94668.13;;;3.95;71.39
66479;BME280;53294;47.912;13.526;2024-02-26T08:13:45;94665.81;;;4.07;71.50
66479;BME280;53294;47.912;13.526;2024-02-26T08:16:11;94668.72;;;4.25;70.82
66479;BME280;53294;47.912;13.526;2024-02-26T08:18:39;94669.03;;;4.37;70.24
66479;BME280;53294;47.912;13.526;2024-02-26T08:21:06;94662.28;;;4.59;69.78
66479;BME280;53294;47.912;13.526;2024-02-26T08:23:33;94654.69;;;4.94;69.33
66479;BME280;53294;47.912;13.526;2024-02-26T08:26:00;94653.88;;;5.35;68.65
66479;BME280;53294;47.912;13.526;2024-02-26T08:28:27;94664.25;;;5.73;67.77
66479;BME280;53294;47.912;13.526;2024-02-26T08:30:53;94653.53;;;5.87;67.01
66479;BME280;53294;47.912;13.526;2024-02-26T08:33:20;94650.84;;;6.23;65.65
66479;BME280;53294;47.912;13.526;2024-02-26T08:35:47;94667.56;;;6.38;65.51
66479;BME280;53294;47.912;13.526;2024-02-26T08:38:14;94668.56;;;6.51;64.58
66479;BME280;53294;47.912;13.526;2024-02-26T08:40:41;94664.25;;;6.63;63.99
66479;BME280;53294;47.912;13.526;2024-02-26T08:43:08;94666.66;;;6.42;63.97
66479;BME280;53294;47.912;13.526;2024-02-26T08:45:36;94667.13;;;6.44;64.51
66479;BME280;53294;47.912;13.526;2024-02-26T08:48:03;94664.50;;;6.53;65.25
66479;BME280;53294;47.912;13.526;2024-02-26T08:50:30;94661.97;;;6.79;63.94
66479;BME280;53294;47.912;13.526;2024-02-26T08:52:57;94663.78;;;7.01;63.95
66479;BME280;53294;47.912;13.526;2024-02-26T08:55:24;94668.16;;;6.97;64.40
66479;BME280;53294;47.912;13.526;2024-02-26T08:57:51;94669.00;;;6.75;63.13
66479;BME280;53294;47.912;13.526;2024-02-26T09:00:18;94671.75;;;6.61;63.27
66479;BME280;53294;47.912;13.526;2024-02-26T09:02:47;94670.09;;;6.43;64.48
66479;BME280;53294;47.912;13.526;2024-02-26T09:05:15;94669.56;;;6.32;64.70
66479;BME280;53294;47.912;13.526;2024-02-26T09:07:42;94673.69;;;5.79;65.83
66479;BME280;53294;47.912;13.526;2024-02-26T09:10:09;94676.22;;;5.62;66.48
66479;BME280;53294;47.912;13.526;2024-02-26T09:12:37;94665.19;;;5.54;67.38
66479;BME280;53294;47.912;13.526;2024-02-26T09:15:07;94675.75;;;5.60;67.17
66479;BME280;53294;47.912;13.526;2024-02-26T09:17:34;94683.50;;;5.70;67.41
66479;BME280;53294;47.912;13.526;2024-02-26T09:20:02;94685.19;;;5.66;67.03
66479;BME280;53294;47.912;13.526;2024-02-26T09:22:29;94690.59;;;6.11;67.63
66479;BME280;53294;47.912;13.526;2024-02-26T09:24:56;94678.09;;;6.43;66.29
66479;BME280;53294;47.912;13.526;2024-02-26T09:27:23;94675.00;;;7.21;65.29
66479;BME280;53294;47.912;13.526;2024-02-26T09:29:50;94680.78;;;7.89;63.37
66479;BME280;53294;47.912;13.526;2024-02-26T09:32:17;94664.53;;;8.30;62.30
66479;BME280;53294;47.912;13.526;2024-02-26T09:34:44;94676.19;;;8.25;61.64
66479;BME280;53294;47.912;13.526;2024-02-26T09:37:11;94674.28;;;8.34;61.08
66479;BME280;53294;47.912;13.526;2024-02-26T09:39:47;94676.50;;;8.32;60.79
66479;BME280;53294;47.912;13.526;2024-02-26T09:42:18;94682.47;;;8.29;60.49
66479;BME280;53294;47.912;13.526;2024-02-26T09:44:46;94674.59;;;8.41;60.38
66479;BME280;53294;47.912;13.526;2024-02-26T09:47:17;94673.78;;;8.58;60.17
66479;BME280;53294;47.912;13.526;2024-02-26T09:49:47;94670.41;;;8.88;59.67
66479;BME280;53294;47.912;13.526;2024-02-26T09:52:15;94662.19;;;8.93;59.38
66479;BME280;53294;47.912;13.526;2024-02-26T09:54:47;94666.34;;;8.82;59.99
66479;BME280;53294;47.912;13.526;2024-02-26T09:57:15;94667.44;;;8.80;59.65
66479;BME280;53294;47.912;13.526;2024-02-26T09:59:44;94659.81;;;9.00;59.73
66479;BME280;53294;47.912;13.526;2024-02-26T10:02:14;94665.47;;;9.37;58.12
66479;BME280;53294;47.912;13.526;2024-02-26T10:04:41;94670.66;;;9.84;56.98
66479;BME280;53294;47.912;13.526;2024-02-26T10:07:14;94671.19;;;9.99;56.44
66479;BME280;53294;47.912;13.526;2024-02-26T10:09:41;94675.03;;;10.31;56.21
66479;BME280;53294;47.912;13.526;2024-02-26T10:12:10;94675.44;;;10.42;55.27
66479;BME280;53294;47.912;13.526;2024-02-26T10:14:38;94674.72;;;10.66;54.23
66479;BME280;53294;47.912;13.526;2024-02-26T10:17:07;94678.69;;;10.93;53.98
66479;BME280;53294;47.912;13.526;2024-02-26T10:19:37;94684.78;;;11.27;55.16
66479;BME280;53294;47.912;13.526;2024-02-26T10:22:05;94665.69;;;11.94;52.67
66479;BME280;53294;47.912;13.526;2024-02-26T10:24:32;94661.63;;;12.29;52.61
66479;BME280;53294;47.912;13.526;2024-02-26T10:27:01;94655.50;;;12.72;51.17
66479;BME280;53294;47.912;13.526;2024-02-26T10:29:29;94657.13;;;12.61;49.00
66479;BME280;53294;47.912;13.526;2024-02-26T10:31:56;94669.56;;;12.37;49.91
66479;BME280;53294;47.912;13.526;2024-02-26T10:34:23;94666.50;;;11.70;52.10
66479;BME280;53294;47.912;13.526;2024-02-26T10:36:50;94681.31;;;11.27;53.48
66479;BME280;53294;47.912;13.526;2024-02-26T10:39:20;94676.13;;;10.85;53.55
66479;BME280;53294;47.912;13.526;2024-02-26T10:41:48;94677.53;;;10.70;54.56
66479;BME280;53294;47.912;13.526;2024-02-26T10:44:14;94671.59;;;9.88;55.17
66479;BME280;53294;47.912;13.526;2024-02-26T10:46:46;94684.66;;;9.69;56.88
66479;BME280;53294;47.912;13.526;2024-02-26T10:49:15;94672.19;;;9.73;57.20
66479;BME280;53294;47.912;13.526;2024-02-26T10:51:46;94667.00;;;9.68;56.65
66479;BME280;53294;47.912;13.526;2024-02-26T10:54:16;94676.75;;;9.94;55.96
66479;BME280;53294;47.912;13.526;2024-02-26T10:56:45;94669.44;;;10.03;55.85
66479;BME280;53294;47.912;13.526;2024-02-26T10:59:14;94664.81;;;10.24;52.48
66479;BME280;53294;47.912;13.526;2024-02-26T11:01:50;94666.25;;;10.22;51.98
66479;BME280;53294;47.912;13.526;2024-02-26T11:04:18;94666.97;;;10.31;52.12
66479;BME280;53294;47.912;13.526;2024-02-26T11:06:46;94658.81;;;10.28;52.09
66479;BME280;53294;47.912;13.526;2024-02-26T11:09:17;94655.13;;;10.32;52.55
66479;BME280;53294;47.912;13.526;2024-02-26T11:11:46;94661.44;;;9.94;52.97
66479;BME280;53294;47.912;13.526;2024-02-26T11:14:14;94660.28;;;9.62;54.47
66479;BME280;53294;47.912;13.526;2024-02-26T11:16:41;94656.28;;;9.38;56.25
66479;BME280;53294;47.912;13.526;2024-02-26T11:19:10;94655.88;;;9.27;56.25
66479;BME280;53294;47.912;13.526;2024-02-26T11:21:39;94659.91;;;9.42;57.03
66479;BME280;53294;47.912;13.526;2024-02-26T11:24:11;94644.91;;;9.71;56.53
66479;BME280;53294;47.912;13.526;2024-02-26T11:26:44;94651.31;;;10.00;55.53
66479;BME280;53294;47.912;13.526;2024-02-26T11:29:17;94644.41;;;10.11;54.93
66479;BME280;53294;47.912;13.526;2024-02-26T11:31:47;94645.47;;;10.19;54.63
66479;BME280;53294;47.912;13.526;2024-02-26T11:34:14;94644.72;;;10.31;54.37
66479;BME280;53294;47.912;13.526;2024-02-26T11:36:41;94648.34;;;10.35;54.21
66479;BME280;53294;47.912;13.526;2024-02-26T11:39:11;94645.22;;;10.12;54.80
66479;BME280;53294;47.912;13.526;2024-02-26T11:41:39;94645.50;;;9.98;56.17
66479;BME280;53294;47.912;13.526;2024-02-26T11:44:06;94644.41;;;10.11;56.86
66479;BME280;53294;47.912;13.526;2024-02-26T11:46:39;94640.63;;;10.12;57.17
66479;BME280;53294;47.912;13.526;2024-02-26T11:51:56;94632.47;;;10.42;55.95
66479;BME280;53294;47.912;13.526;2024-02-26T11:54:56;94636.34;;;10.53;54.26
66479;BME280;53294;47.912;13.526;2024-02-26T12:02:43;94636.13;;;10.58;54.93
66479;BME280;53294;47.912;13.526;2024-02-26T12:07:50;94635.47;;;10.74;55.56
66479;BME280;53294;47.912;13.526;2024-02-26T12:10:27;94634.81;;;10.89;54.88
66479;BME280;53294;47.912;13.526;2024-02-26T12:13:05;94633.91;;;10.85;54.94
66479;BME280;53294;47.912;13.526;2024-02-26T12:15:37;94626.84;;;10.81;54.96
66479;BME280;53294;47.912;13.526;2024-02-26T12:18:06;94630.91;;;10.87;55.34
66479;BME280;53294;47.912;13.526;2024-02-26T12:20:34;94631.34;;;10.89;55.30
66479;BME280;53294;47.912;13.526;2024-02-26T12:23:03;94628.31;;;10.78;55.39
66479;BME280;53294;47.912;13.526;2024-02-26T12:25:31;94624.75;;;10.86;54.32
66479;BME280;53294;47.912;13.526;2024-02-26T12:27:59;94624.28;;;10.84;54.33
66479;BME280;53294;47.912;13.526;2024-02-26T12:30:26;94620.56;;;10.76;55.79
66479;BME280;53294;47.912;13.526;2024-02-26T12:32:56;94629.63;;;10.72;56.01
66479;BME280;53294;47.912;13.526;2024-02-26T12:35:24;94630.50;;;10.51;55.64
66479;BME280;53294;47.912;13.526;2024-02-26T12:37:52;94635.09;;;10.51;55.57
66479;BME280;53294;47.912;13.526;2024-02-26T12:40:20;94633.66;;;10.78;53.29
66479;BME280;53294;47.912;13.526;2024-02-26T12:42:47;94622.94;;;11.03;51.74
66479;BME280;53294;47.912;13.526;2024-02-26T12:45:15;94625.38;;;11.45;51.20
66479;BME280;53294;47.912;13.526;2024-02-26T12:47:43;94622.25;;;11.55;51.35
66479;BME280;53294;47.912;13.526;2024-02-26T12:50:12;94620.66;;;11.66;52.01
66479;BME280;53294;47.912;13.526;2024-02-26T12:52:40;94620.63;;;11.79;51.53
66479;BME280;53294;47.912;13.526;2024-02-26T12:55:07;94619.16;;;11.81;52.39
66479;BME280;53294;47.912;13.526;2024-02-26T12:57:38;94622.16;;;12.05;52.63
66479;BME280;53294;47.912;13.526;2024-02-26T13:00:06;94620.56;;;12.03;51.87
66479;BME280;53294;47.912;13.526;2024-02-26T13:02:37;94620.31;;;12.09;51.07
66479;BME280;53294;47.912;13.526;2024-02-26T13:05:06;94630.47;;;11.99;50.70